Time;durP1;ratioP1;P1;durP2;ratioP2;P2;SDS_P1;SDS_P2;PMS_P1;PMS_P2;Temp;Humidity;BMP_temperature;BMP_pressure;BME280_temperature;BME280_humidity;BME280_pressure;Samples;Min_cycle;Max_cycle;Signal;HPM_P1;HPM_P2
2021/07/21 00:02:48;;;;;;;;;;;14.80;99.90;;;;;;5109906;28;20382;-58
2021/07/21 00:05:37;;;;;;;;;;;14.70;99.90;;;;;;5100759;28;19947;-58
2021/07/21 00:08:25;;;;;;;;;;;14.70;99.90;;;;;;5107236;28;19924;-61
2021/07/21 00:14:21;;;;;;;;;;;14.50;99.90;;;;;;5110998;28;19972;-58
2021/07/21 00:17:18;;;;;;;;;;;14.50;99.90;;;;;;5103588;28;19924;-58
2021/07/21 00:20:08;;;;;;;;;;;14.50;99.90;;;;;;5110386;28;20379;-61
2021/07/21 00:22:57;;;;;;;;;;;14.40;99.90;;;;;;5103021;28;19924;-58
2021/07/21 00:25:46;;;;;;;;;;;14.30;99.90;;;;;;5109610;28;20280;-59
2021/07/21 00:28:39;;;;;;;;;;;14.30;99.90;;;;;;5107269;28;19931;-58
2021/07/21 00:31:52;;;;;;;;;;;14.30;99.90;;;;;;5102352;28;20352;-58
2021/07/21 00:34:41;;;;;;;;;;;14.30;99.90;;;;;;5107422;28;19924;-58
2021/07/21 00:37:31;;;;;;;;;;;14.30;99.90;;;;;;5106965;28;21438;-58
2021/07/21 00:40:19;;;;;;;;;;;14.20;99.90;;;;;;5109656;28;20010;-58
2021/07/21 00:43:09;;;;;;;;;;;14.20;99.90;;;;;;5098231;28;19931;-58
2021/07/21 00:45:59;;;;;;;;;;;14.10;99.90;;;;;;5102979;28;19930;-58
2021/07/21 00:48:48;;;;;;;;;;;14.10;99.90;;;;;;5110511;28;19967;-58
2021/07/21 00:51:36;;;;;;;;;;;14.00;99.90;;;;;;5108724;28;20103;-57
2021/07/21 00:54:25;;;;;;;;;;;14.00;99.90;;;;;;5109556;28;19931;-58
2021/07/21 00:57:13;;;;;;;;;;;14.00;99.90;;;;;;5097679;28;20432;-58
2021/07/21 01:00:02;;;;;;;;;;;13.90;99.90;;;;;;5107506;28;20916;-58
2021/07/21 01:03:02;;;;;;;;;;;13.90;99.90;;;;;;5106707;28;19932;-58
2021/07/21 01:05:54;;;;;;;;;;;13.90;99.90;;;;;;5092986;28;19924;-58
2021/07/21 01:08:43;;;;;;;;;;;13.80;99.90;;;;;;5096197;28;19934;-58
2021/07/21 01:11:42;;;;;;;;;;;13.80;99.90;;;;;;5092970;28;20332;-60
2021/07/21 01:14:34;;;;;;;;;;;13.70;99.90;;;;;;5092611;28;19938;-58
2021/07/21 01:17:26;;;;;;;;;;;13.70;99.90;;;;;;5093269;28;20015;-58
2021/07/21 01:20:33;;;;;;;;;;;13.70;99.90;;;;;;5093476;28;20383;-58
2021/07/21 01:23:33;;;;;;;;;;;13.60;99.90;;;;;;5108182;28;19931;-58
2021/07/21 01:26:25;;;;;;;;;;;13.70;99.90;;;;;;5092988;28;19958;-58
2021/07/21 01:29:17;;;;;;;;;;;13.60;99.90;;;;;;5109397;28;20372;-58
2021/07/21 01:32:07;;;;;;;;;;;13.70;99.90;;;;;;5086540;28;19928;-58
2021/07/21 01:35:00;;;;;;;;;;;13.60;99.90;;;;;;5097208;28;19992;-59
2021/07/21 01:37:54;;;;;;;;;;;13.50;99.90;;;;;;5112081;28;19924;-58
2021/07/21 01:40:44;;;;;;;;;;;13.60;99.90;;;;;;5114326;28;19955;-59
2021/07/21 01:43:34;;;;;;;;;;;13.60;99.90;;;;;;5116863;28;19923;-59
2021/07/21 01:46:26;;;;;;;;;;;13.50;99.90;;;;;;5099312;28;19923;-58
2021/07/21 01:49:16;;;;;;;;;;;13.50;99.90;;;;;;5098936;28;19934;-58
2021/07/21 01:52:09;;;;;;;;;;;13.50;99.90;;;;;;5100771;28;19924;-59
2021/07/21 01:55:01;;;;;;;;;;;13.50;99.90;;;;;;5106899;28;19940;-59
2021/07/21 01:58:00;;;;;;;;;;;13.50;99.90;;;;;;5116374;27;20014;-59
2021/07/21 02:01:21;;;;;;;;;;;13.40;99.90;;;;;;5101308;28;19924;-61
2021/07/21 02:04:46;;;;;;;;;;;13.40;99.90;;;;;;5097158;28;20309;-58
2021/07/21 02:07:35;;;;;;;;;;;13.40;99.90;;;;;;5102374;28;20022;-59
2021/07/21 02:10:26;;;;;;;;;;;13.30;99.90;;;;;;5096702;28;20331;-59
2021/07/21 02:13:19;;;;;;;;;;;13.30;99.90;;;;;;5099056;28;20287;-61
2021/07/21 02:16:29;;;;;;;;;;;13.20;99.90;;;;;;5070924;28;19925;-58
2021/07/21 02:19:17;;;;;;;;;;;13.10;99.90;;;;;;5095247;28;19923;-58
2021/07/21 02:22:19;;;;;;;;;;;13.00;99.90;;;;;;5095291;28;20295;-59
2021/07/21 02:25:21;;;;;;;;;;;13.00;99.90;;;;;;5099539;28;20368;-58
2021/07/21 02:28:10;;;;;;;;;;;13.00;99.90;;;;;;5106483;28;19939;-58
2021/07/21 02:31:06;;;;;;;;;;;13.00;99.90;;;;;;5102371;28;20039;-58
2021/07/21 02:33:56;;;;;;;;;;;13.00;99.90;;;;;;5108578;28;19924;-58
2021/07/21 02:36:48;;;;;;;;;;;13.00;99.90;;;;;;5093389;28;19924;-60
2021/07/21 02:39:39;;;;;;;;;;;13.00;99.90;;;;;;5094511;28;20006;-59
2021/07/21 02:42:28;;;;;;;;;;;13.10;99.90;;;;;;5111082;27;19931;-59
2021/07/21 02:45:16;;;;;;;;;;;13.10;99.90;;;;;;5101761;28;19977;-58
2021/07/21 02:48:07;;;;;;;;;;;13.20;99.90;;;;;;5093164;28;20325;-58
2021/07/21 02:50:58;;;;;;;;;;;13.20;99.90;;;;;;5098344;28;20397;-59
2021/07/21 02:53:50;;;;;;;;;;;13.30;99.90;;;;;;5104299;28;19924;-58
2021/07/21 02:57:07;;;;;;;;;;;13.30;99.90;;;;;;5095929;28;19973;-58
2021/07/21 03:00:02;;;;;;;;;;;13.30;99.90;;;;;;5092824;28;20009;-58
2021/07/21 03:02:52;;;;;;;;;;;13.30;99.90;;;;;;5112457;27;19931;-58
2021/07/21 03:05:43;;;;;;;;;;;13.30;99.90;;;;;;5097233;28;19981;-58
2021/07/21 03:08:35;;;;;;;;;;;13.30;99.90;;;;;;5110435;28;19928;-58
2021/07/21 03:11:43;;;;;;;;;;;13.20;99.90;;;;;;5111991;28;19925;-59
2021/07/21 03:14:36;;;;;;;;;;;13.20;99.90;;;;;;5111446;28;19924;-58
2021/07/21 03:17:27;;;;;;;;;;;13.10;99.90;;;;;;5093481;28;20421;-58
2021/07/21 03:20:18;;;;;;;;;;;13.00;99.90;;;;;;5098353;28;19930;-58
2021/07/21 03:23:20;;;;;;;;;;;13.00;99.90;;;;;;5112143;28;19935;-60
2021/07/21 03:26:22;;;;;;;;;;;12.90;99.90;;;;;;5098037;28;20009;-58
2021/07/21 03:29:14;;;;;;;;;;;12.80;99.90;;;;;;5091592;28;19923;-59
2021/07/21 03:32:05;;;;;;;;;;;12.80;99.90;;;;;;5092458;28;20010;-58
2021/07/21 03:34:54;;;;;;;;;;;12.70;99.90;;;;;;5107121;28;19978;-59
2021/07/21 03:37:46;;;;;;;;;;;12.70;99.90;;;;;;5105931;28;19931;-60
2021/07/21 03:40:35;;;;;;;;;;;12.60;99.90;;;;;;5109357;28;19938;-60
2021/07/21 03:43:43;;;;;;;;;;;12.60;99.90;;;;;;5098237;28;20283;-58
2021/07/21 03:46:38;;;;;;;;;;;12.50;99.90;;;;;;5098819;28;19927;-58
2021/07/21 03:49:29;;;;;;;;;;;12.50;99.90;;;;;;5093699;28;20043;-58
2021/07/21 03:52:31;;;;;;;;;;;12.50;99.90;;;;;;5106965;28;19924;-58
2021/07/21 03:55:29;;;;;;;;;;;12.40;99.90;;;;;;5096553;28;19924;-58
2021/07/21 03:58:29;;;;;;;;;;;12.50;99.90;;;;;;5097130;28;19931;-58
2021/07/21 04:01:29;;;;;;;;;;;12.40;99.90;;;;;;5094823;28;20006;-58
2021/07/21 04:04:19;;;;;;;;;;;12.40;99.90;;;;;;5107273;28;19923;-59
2021/07/21 04:07:12;;;;;;;;;;;12.40;99.90;;;;;;5104498;27;19928;-58
2021/07/21 04:10:07;;;;;;;;;;;12.40;99.90;;;;;;5096875;28;19935;-58
2021/07/21 04:13:03;;;;;;;;;;;12.40;99.90;;;;;;5100136;28;19930;-58
2021/07/21 04:16:13;;;;;;;;;;;12.50;99.90;;;;;;5101252;28;19934;-58
2021/07/21 04:19:04;;;;;;;;;;;12.60;99.90;;;;;;5093889;28;19931;-58
2021/07/21 04:22:21;;;;;;;;;;;12.60;99.90;;;;;;5110026;28;19923;-59
2021/07/21 04:25:14;;;;;;;;;;;12.70;99.90;;;;;;5097593;28;20291;-59
2021/07/21 04:28:03;;;;;;;;;;;12.80;99.90;;;;;;5101192;28;19923;-58
2021/07/21 04:30:58;;;;;;;;;;;12.90;99.90;;;;;;5092325;28;19928;-58
2021/07/21 04:33:47;;;;;;;;;;;13.00;99.90;;;;;;5111261;28;20360;-58
2021/07/21 04:36:38;;;;;;;;;;;13.10;99.90;;;;;;5109281;28;20352;-58
2021/07/21 04:39:31;;;;;;;;;;;13.20;99.90;;;;;;5095346;28;19931;-59
2021/07/21 04:42:39;;;;;;;;;;;13.30;99.90;;;;;;5094412;28;19939;-58
2021/07/21 04:45:30;;;;;;;;;;;13.40;99.90;;;;;;5093410;28;19930;-57
2021/07/21 04:48:22;;;;;;;;;;;13.50;99.90;;;;;;5097421;28;19927;-58
2021/07/21 04:51:23;;;;;;;;;;;13.60;99.90;;;;;;5096577;28;20336;-59
2021/07/21 04:54:20;;;;;;;;;;;13.70;99.90;;;;;;5095078;28;20355;-58
2021/07/21 04:57:15;;;;;;;;;;;13.90;99.90;;;;;;5108392;28;19924;-58
2021/07/21 05:00:29;;;;;;;;;;;14.00;99.90;;;;;;5099435;28;19938;-58
2021/07/21 05:03:30;;;;;;;;;;;14.20;99.90;;;;;;5092900;28;20378;-58
2021/07/21 05:06:21;;;;;;;;;;;14.30;99.90;;;;;;5092248;28;20339;-58
2021/07/21 05:09:12;;;;;;;;;;;14.40;99.90;;;;;;5110076;28;20337;-58
2021/07/21 05:12:06;;;;;;;;;;;14.70;99.90;;;;;;5101712;28;19924;-58
2021/07/21 05:15:02;;;;;;;;;;;14.80;99.90;;;;;;5099126;28;19925;-59
2021/07/21 05:17:59;;;;;;;;;;;14.90;99.90;;;;;;5108987;28;20268;-58
2021/07/21 05:20:57;;;;;;;;;;;15.10;99.90;;;;;;5099968;28;19931;-59
2021/07/21 05:23:48;;;;;;;;;;;15.20;99.90;;;;;;5117780;28;19924;-60
2021/07/21 05:26:40;;;;;;;;;;;15.20;99.90;;;;;;5125988;28;19924;-60
2021/07/21 05:29:39;;;;;;;;;;;15.40;99.90;;;;;;5123269;28;19935;-57
2021/07/21 05:32:40;;;;;;;;;;;15.40;99.90;;;;;;5119147;28;20392;-57
2021/07/21 05:35:32;;;;;;;;;;;15.40;99.90;;;;;;5114233;28;20314;-58
2021/07/21 05:38:30;;;;;;;;;;;15.60;99.90;;;;;;5107434;28;19927;-57
2021/07/21 05:41:19;;;;;;;;;;;15.80;99.90;;;;;;5102369;28;19934;-57
2021/07/21 05:44:09;;;;;;;;;;;15.80;99.90;;;;;;5105232;28;19924;-58
2021/07/21 05:47:22;;;;;;;;;;;15.90;99.90;;;;;;5107582;27;19955;-58
2021/07/21 05:50:15;;;;;;;;;;;16.40;99.90;;;;;;5090356;28;20374;-58
2021/07/21 05:53:15;;;;;;;;;;;16.60;99.90;;;;;;5094006;28;20252;-59
2021/07/21 05:56:06;;;;;;;;;;;16.90;99.90;;;;;;5101034;28;20623;-58
2021/07/21 05:59:03;;;;;;;;;;;16.90;99.90;;;;;;5098673;28;19979;-58
2021/07/21 06:01:54;;;;;;;;;;;17.10;99.90;;;;;;5103471;28;19928;-58
2021/07/21 06:04:44;;;;;;;;;;;17.10;99.90;;;;;;5114839;27;19931;-58
2021/07/21 06:07:52;;;;;;;;;;;17.20;99.90;;;;;;5109019;28;19923;-58
2021/07/21 06:11:04;;;;;;;;;;;17.40;99.90;;;;;;5108283;28;19928;-58
2021/07/21 06:13:56;;;;;;;;;;;17.40;99.90;;;;;;5109860;28;19923;-58
2021/07/21 06:16:45;;;;;;;;;;;17.40;99.90;;;;;;5094730;28;19923;-58
2021/07/21 06:19:34;;;;;;;;;;;17.50;99.90;;;;;;5107887;28;19924;-58
2021/07/21 06:22:23;;;;;;;;;;;17.30;99.90;;;;;;5099225;28;20037;-58
2021/07/21 06:25:23;;;;;;;;;;;17.30;99.90;;;;;;5108160;28;19924;-58
2021/07/21 06:28:31;;;;;;;;;;;17.50;99.90;;;;;;5107744;28;20520;-58
2021/07/21 06:31:45;;;;;;;;;;;17.60;99.90;;;;;;5094135;28;20390;-58
2021/07/21 06:34:37;;;;;;;;;;;17.80;99.90;;;;;;5098042;28;19931;-58
2021/07/21 06:37:34;;;;;;;;;;;18.10;99.90;;;;;;5107303;28;19943;-59
2021/07/21 06:40:27;;;;;;;;;;;18.10;99.90;;;;;;5099828;28;20299;-58
2021/07/21 06:43:19;;;;;;;;;;;18.30;99.90;;;;;;5099442;28;19931;-58
2021/07/21 06:46:23;;;;;;;;;;;18.90;99.90;;;;;;5089824;28;20620;-58
2021/07/21 06:49:26;;;;;;;;;;;19.50;99.90;;;;;;5092462;28;19945;-58
2021/07/21 06:52:16;;;;;;;;;;;19.90;99.90;;;;;;5097901;28;19924;-58
2021/07/21 06:55:07;;;;;;;;;;;20.60;99.90;;;;;;5097719;28;19928;-58
2021/07/21 06:58:10;;;;;;;;;;;21.80;99.90;;;;;;5109061;28;19935;-58
2021/07/21 07:00:58;;;;;;;;;;;22.10;98.50;;;;;;5104615;28;20375;-59
2021/07/21 07:03:56;;;;;;;;;;;22.50;97.50;;;;;;5109595;28;19975;-59
2021/07/21 07:07:04;;;;;;;;;;;23.70;96.40;;;;;;5106591;28;19936;-59
2021/07/21 07:10:12;;;;;;;;;;;24.10;94.90;;;;;;5108334;28;19932;-58
2021/07/21 07:13:05;;;;;;;;;;;24.40;93.40;;;;;;5108617;28;19931;-58
2021/07/21 07:15:55;;;;;;;;;;;24.40;92.80;;;;;;5101663;28;19939;-60
2021/07/21 07:18:44;;;;;;;;;;;24.90;91.60;;;;;;5108783;28;20028;-59
2021/07/21 07:21:32;;;;;;;;;;;25.50;91.40;;;;;;5101430;28;19942;-59
2021/07/21 07:24:21;;;;;;;;;;;25.90;90.70;;;;;;5109681;28;19935;-59
2021/07/21 07:27:09;;;;;;;;;;;26.30;89.20;;;;;;5102377;28;20347;-59
2021/07/21 07:29:58;;;;;;;;;;;25.60;89.50;;;;;;5109380;28;19927;-59
2021/07/21 07:32:47;;;;;;;;;;;25.70;89.70;;;;;;5110198;28;20440;-59
2021/07/21 07:35:39;;;;;;;;;;;25.40;89.60;;;;;;5097532;28;20395;-59
2021/07/21 07:38:27;;;;;;;;;;;25.50;89.80;;;;;;5109686;28;20026;-59
2021/07/21 07:41:16;;;;;;;;;;;26.40;87.20;;;;;;5107053;28;20390;-59
2021/07/21 07:44:05;;;;;;;;;;;26.40;84.80;;;;;;5105069;28;19928;-59
2021/07/21 07:46:54;;;;;;;;;;;27.10;84.00;;;;;;5103980;28;20169;-60
2021/07/21 07:49:44;;;;;;;;;;;27.00;84.20;;;;;;5103919;28;19988;-58
2021/07/21 07:52:33;;;;;;;;;;;25.90;84.90;;;;;;5104234;28;19924;-58
2021/07/21 07:55:22;;;;;;;;;;;26.00;85.30;;;;;;5105831;28;20402;-59
2021/07/21 07:58:10;;;;;;;;;;;26.90;84.70;;;;;;5106994;28;19931;-60
2021/07/21 08:00:59;;;;;;;;;;;27.80;81.60;;;;;;5099036;28;19947;-60
2021/07/21 08:03:47;;;;;;;;;;;28.10;78.80;;;;;;5108481;28;19924;-60
2021/07/21 08:06:37;;;;;;;;;;;28.90;77.50;;;;;;5107207;28;19932;-60
2021/07/21 08:09:25;;;;;;;;;;;29.90;72.30;;;;;;5108248;28;19927;-60
2021/07/21 08:12:14;;;;;;;;;;;31.60;64.90;;;;;;5107506;28;19932;-59
2021/07/21 08:15:03;;;;;;;;;;;30.70;64.30;;;;;;5101856;28;19927;-59
2021/07/21 08:17:53;;;;;;;;;;;30.20;65.50;;;;;;5108508;28;19924;-59
2021/07/21 08:20:42;;;;;;;;;;;30.80;63.50;;;;;;5107055;28;20742;-59
2021/07/21 08:23:33;;;;;;;;;;;28.60;66.60;;;;;;5108261;28;20359;-59
2021/07/21 08:26:21;;;;;;;;;;;27.90;70.30;;;;;;5107434;28;19931;-59
2021/07/21 08:29:10;;;;;;;;;;;28.60;70.20;;;;;;5112458;28;20069;-59
2021/07/21 08:31:58;;;;;;;;;;;28.30;70.30;;;;;;5101699;28;19939;-59
2021/07/21 08:34:46;;;;;;;;;;;29.40;69.80;;;;;;5105093;28;20010;-59
2021/07/21 08:37:35;;;;;;;;;;;29.90;66.00;;;;;;5107118;28;19923;-60
2021/07/21 08:40:25;;;;;;;;;;;28.20;69.20;;;;;;5107452;28;19923;-60
2021/07/21 08:47:07;;;;;;;;;;;30.20;63.10;;;;;;5114851;28;19947;-62
2021/07/21 08:49:56;;;;;;;;;;;30.00;61.90;;;;;;5114910;28;19924;-60
2021/07/21 08:52:45;;;;;;;;;;;28.70;65.00;;;;;;5116913;28;20025;-60
2021/07/21 08:55:35;;;;;;;;;;;29.10;64.00;;;;;;5122774;28;19938;-61
2021/07/21 08:58:24;;;;;;;;;;;28.90;62.30;;;;;;5117993;28;19924;-61
2021/07/21 09:01:16;;;;;;;;;;;28.50;65.60;;;;;;5104372;28;20379;-60
2021/07/21 09:04:05;;;;;;;;;;;28.40;64.70;;;;;;5122715;28;19924;-61
2021/07/21 09:06:57;;;;;;;;;;;29.70;64.00;;;;;;5125400;28;19990;-64
2021/07/21 09:09:46;;;;;;;;;;;29.60;65.20;;;;;;5122213;28;19932;-60
2021/07/21 09:12:39;;;;;;;;;;;29.50;67.20;;;;;;5123432;28;19924;-61
2021/07/21 09:15:27;;;;;;;;;;;31.30;59.30;;;;;;5110832;28;20044;-61
2021/07/21 09:18:16;;;;;;;;;;;31.40;60.20;;;;;;5124266;28;19923;-60
2021/07/21 09:21:07;;;;;;;;;;;34.40;54.00;;;;;;5117835;28;19970;-61
2021/07/21 09:23:57;;;;;;;;;;;38.20;46.40;;;;;;5122574;28;19998;-61
2021/07/21 09:26:47;;;;;;;;;;;38.90;41.70;;;;;;5125485;28;20010;-60
2021/07/21 09:29:38;;;;;;;;;;;38.20;39.70;;;;;;5121897;28;20654;-61
2021/07/21 09:32:26;;;;;;;;;;;31.80;47.40;;;;;;5102620;28;19928;-61
2021/07/21 09:35:15;;;;;;;;;;;33.40;48.60;;;;;;5121612;28;19966;-60
2021/07/21 09:38:08;;;;;;;;;;;30.30;52.70;;;;;;5128423;28;19967;-60
2021/07/21 09:40:57;;;;;;;;;;;28.70;60.00;;;;;;5109337;28;20299;-61
2021/07/21 09:43:46;;;;;;;;;;;28.50;62.40;;;;;;5107003;28;20010;-60
2021/07/21 09:46:38;;;;;;;;;;;28.30;62.50;;;;;;5103957;28;20011;-59
2021/07/21 09:49:26;;;;;;;;;;;28.10;60.00;;;;;;5106315;28;20294;-59
2021/07/21 09:52:18;;;;;;;;;;;27.50;61.50;;;;;;5109893;28;20401;-59
2021/07/21 09:55:08;;;;;;;;;;;26.90;64.10;;;;;;5105717;28;19963;-59
2021/07/21 09:58:01;;;;;;;;;;;26.80;65.70;;;;;;5100006;28;19924;-59
2021/07/21 10:00:50;;;;;;;;;;;26.50;63.70;;;;;;5103473;28;19928;-59
2021/07/21 10:03:41;;;;;;;;;;;26.30;65.00;;;;;;5102397;28;19996;-59
2021/07/21 10:06:38;;;;;;;;;;;26.60;65.40;;;;;;5086544;28;20395;-60
2021/07/21 10:09:26;;;;;;;;;;;26.30;66.10;;;;;;5110853;28;19924;-59
2021/07/21 10:12:16;;;;;;;;;;;25.70;68.80;;;;;;5112709;28;19924;-59
2021/07/21 10:15:05;;;;;;;;;;;26.30;68.40;;;;;;5106948;28;19939;-59
2021/07/21 10:18:04;;;;;;;;;;;27.50;64.30;;;;;;5105209;28;19924;-60
2021/07/21 10:20:53;;;;;;;;;;;26.80;65.00;;;;;;5110173;28;19938;-59
2021/07/21 10:23:42;;;;;;;;;;;27.40;62.40;;;;;;5113703;28;19924;-60
2021/07/21 10:26:34;;;;;;;;;;;29.20;57.90;;;;;;5110751;28;20365;-60
2021/07/21 10:29:22;;;;;;;;;;;30.50;55.90;;;;;;5109394;28;19924;-59
2021/07/21 10:32:11;;;;;;;;;;;27.60;59.20;;;;;;5111258;28;19978;-60
2021/07/21 10:35:00;;;;;;;;;;;25.60;64.50;;;;;;5103045;28;19984;-60
2021/07/21 10:37:50;;;;;;;;;;;25.90;67.20;;;;;;5108133;28;19924;-59
2021/07/21 10:40:43;;;;;;;;;;;25.70;67.40;;;;;;5104469;28;20383;-59
2021/07/21 10:43:32;;;;;;;;;;;25.00;69.10;;;;;;5110668;28;19939;-59
2021/07/21 10:46:37;;;;;;;;;;;25.50;70.60;;;;;;5109660;28;19965;-59
2021/07/21 10:49:30;;;;;;;;;;;24.80;70.80;;;;;;5101454;28;19927;-59
2021/07/21 10:52:40;;;;;;;;;;;24.40;74.90;;;;;;5111227;28;19938;-60
2021/07/21 10:55:34;;;;;;;;;;;24.70;76.80;;;;;;5112596;28;20280;-59
2021/07/21 11:01:52;;;;;;;;;;;24.80;75.40;;;;;;5102358;28;20053;-60
2021/07/21 11:04:42;;;;;;;;;;;24.80;75.20;;;;;;5105125;28;19924;-59
2021/07/21 11:07:50;;;;;;;;;;;24.70;74.90;;;;;;5113070;28;19946;-59
2021/07/21 11:10:41;;;;;;;;;;;24.70;75.00;;;;;;5111324;28;19924;-60
2021/07/21 11:13:36;;;;;;;;;;;24.50;73.50;;;;;;5109716;28;19962;-62
2021/07/21 11:16:40;;;;;;;;;;;25.00;74.40;;;;;;5104533;28;20300;-59
2021/07/21 11:19:38;;;;;;;;;;;25.70;71.50;;;;;;5109403;28;20024;-59
2021/07/21 11:22:50;;;;;;;;;;;25.30;69.10;;;;;;5108139;28;19923;-60
2021/07/21 11:25:40;;;;;;;;;;;26.00;68.30;;;;;;5105452;28;20011;-59
2021/07/21 11:28:29;;;;;;;;;;;27.80;65.40;;;;;;5108293;28;19930;-59
2021/07/21 11:37:45;;;;;;;;;;;26.00;63.10;;;;;;5109004;28;20007;-59
2021/07/21 11:40:43;;;;;;;;;;;25.30;68.50;;;;;;5108768;28;19934;-59
2021/07/21 11:43:33;;;;;;;;;;;25.00;70.80;;;;;;5106970;28;19931;-59
2021/07/21 11:46:22;;;;;;;;;;;24.90;71.40;;;;;;5087618;28;19928;-59
2021/07/21 11:49:15;;;;;;;;;;;24.60;71.90;;;;;;5104474;28;19931;-59
2021/07/21 11:52:05;;;;;;;;;;;24.80;73.30;;;;;;5109801;28;19956;-60
2021/07/21 11:54:53;;;;;;;;;;;25.20;75.00;;;;;;5107851;28;20334;-59
2021/07/21 11:57:43;;;;;;;;;;;25.70;73.00;;;;;;5109055;28;19927;-58
2021/07/21 12:00:56;;;;;;;;;;;25.70;71.90;;;;;;5103799;28;19962;-59
2021/07/21 12:03:45;;;;;;;;;;;24.90;71.30;;;;;;5110403;28;19942;-58
2021/07/21 12:06:41;;;;;;;;;;;24.90;73.60;;;;;;5104656;28;20028;-58
2021/07/21 12:09:30;;;;;;;;;;;25.20;71.10;;;;;;5107626;28;19934;-59
2021/07/21 12:12:19;;;;;;;;;;;24.90;73.30;;;;;;5107246;28;19924;-59
2021/07/21 12:15:10;;;;;;;;;;;24.70;73.10;;;;;;5109067;28;19999;-59
2021/07/21 12:18:07;;;;;;;;;;;24.40;72.70;;;;;;5098867;28;19924;-60
2021/07/21 12:20:55;;;;;;;;;;;24.40;73.50;;;;;;5102067;28;19959;-59
2021/07/21 12:23:44;;;;;;;;;;;24.80;75.60;;;;;;5102724;28;20011;-58
2021/07/21 12:29:57;;;;;;;;;;;25.10;71.20;;;;;;5108059;28;19938;-59
2021/07/21 12:32:47;;;;;;;;;;;25.20;72.00;;;;;;5103423;28;20343;-59
2021/07/21 12:36:07;;;;;;;;;;;25.30;71.90;;;;;;5104613;28;19924;-59
2021/07/21 12:38:55;;;;;;;;;;;25.50;69.50;;;;;;5100755;28;20298;-59
2021/07/21 12:41:44;;;;;;;;;;;25.50;69.20;;;;;;5110682;28;19923;-59
2021/07/21 12:44:37;;;;;;;;;;;25.80;69.50;;;;;;5112036;28;20418;-59
2021/07/21 12:47:27;;;;;;;;;;;25.70;69.10;;;;;;5103546;28;20401;-59
2021/07/21 12:50:18;;;;;;;;;;;25.90;70.80;;;;;;5119333;28;19912;-60
2021/07/21 12:53:07;;;;;;;;;;;25.70;67.10;;;;;;5126074;28;20004;-59
2021/07/21 12:55:57;;;;;;;;;;;25.40;68.50;;;;;;5117670;28;19924;-60
2021/07/21 12:58:46;;;;;;;;;;;25.40;70.30;;;;;;5129636;28;20263;-61
2021/07/21 13:01:34;;;;;;;;;;;25.60;70.30;;;;;;5123019;28;19923;-60
2021/07/21 13:04:30;;;;;;;;;;;25.80;70.10;;;;;;5109367;28;20291;-59
2021/07/21 13:07:22;;;;;;;;;;;25.90;70.90;;;;;;5109964;28;19923;-59
2021/07/21 13:10:10;;;;;;;;;;;26.00;70.20;;;;;;5108055;28;19924;-59
2021/07/21 13:12:59;;;;;;;;;;;26.10;68.10;;;;;;5107329;28;20072;-59
2021/07/21 13:15:56;;;;;;;;;;;26.20;69.20;;;;;;5102855;28;19931;-59
2021/07/21 13:18:48;;;;;;;;;;;26.30;70.00;;;;;;5096546;28;20024;-59
2021/07/21 13:21:38;;;;;;;;;;;26.30;68.70;;;;;;5105838;28;20391;-59
2021/07/21 13:24:31;;;;;;;;;;;26.20;68.60;;;;;;5104723;28;19931;-59
2021/07/21 13:27:28;;;;;;;;;;;25.80;66.80;;;;;;5102693;28;20368;-59
2021/07/21 13:30:21;;;;;;;;;;;25.60;70.50;;;;;;5106939;28;19958;-59
2021/07/21 13:33:09;;;;;;;;;;;25.40;67.80;;;;;;5111201;28;19958;-58
2021/07/21 13:35:59;;;;;;;;;;;25.40;70.80;;;;;;5109707;28;19958;-59
2021/07/21 13:38:52;;;;;;;;;;;25.70;69.90;;;;;;5114917;28;20033;-59
2021/07/21 13:41:42;;;;;;;;;;;25.30;68.40;;;;;;5112016;28;19970;-59
2021/07/21 13:44:31;;;;;;;;;;;25.60;71.60;;;;;;5112636;28;20317;-59
2021/07/21 13:47:27;;;;;;;;;;;25.60;69.20;;;;;;5105859;28;19930;-59
2021/07/21 13:50:16;;;;;;;;;;;25.70;68.90;;;;;;5113507;28;19931;-60
2021/07/21 13:53:07;;;;;;;;;;;25.60;68.10;;;;;;5111957;28;19931;-60
2021/07/21 13:55:55;;;;;;;;;;;25.60;69.20;;;;;;5113216;28;20591;-59
2021/07/21 13:58:45;;;;;;;;;;;25.50;68.20;;;;;;5115762;28;19962;-59
2021/07/21 14:01:34;;;;;;;;;;;25.00;66.70;;;;;;5106237;27;20022;-59
2021/07/21 14:04:24;;;;;;;;;;;25.20;69.50;;;;;;5088551;28;19935;-59
2021/07/21 14:07:12;;;;;;;;;;;25.00;66.20;;;;;;5110701;28;19945;-59
2021/07/21 14:10:00;;;;;;;;;;;25.10;67.20;;;;;;5102103;28;19924;-59
2021/07/21 14:12:49;;;;;;;;;;;25.30;70.00;;;;;;5107595;28;20339;-59
2021/07/21 14:15:39;;;;;;;;;;;25.50;70.40;;;;;;5101348;27;20352;-59
2021/07/21 14:18:28;;;;;;;;;;;25.20;69.50;;;;;;5111945;28;19931;-59
2021/07/21 14:21:17;;;;;;;;;;;25.20;70.20;;;;;;5108293;28;20406;-59
2021/07/21 14:24:06;;;;;;;;;;;25.50;71.60;;;;;;5109910;28;19957;-59
2021/07/21 14:26:54;;;;;;;;;;;25.90;69.40;;;;;;5108615;28;19928;-59
2021/07/21 14:30:08;;;;;;;;;;;25.90;69.00;;;;;;5111414;28;19923;-59
2021/07/21 14:32:57;;;;;;;;;;;26.20;70.30;;;;;;5113906;28;19977;-59
2021/07/21 14:35:49;;;;;;;;;;;26.10;69.00;;;;;;5113235;28;20035;-59
2021/07/21 14:38:38;;;;;;;;;;;26.50;68.50;;;;;;5106080;28;19923;-59
2021/07/21 14:41:28;;;;;;;;;;;26.20;70.30;;;;;;5110108;28;19923;-59
2021/07/21 14:44:16;;;;;;;;;;;26.20;69.10;;;;;;5110459;28;19928;-59
2021/07/21 14:47:04;;;;;;;;;;;25.90;69.80;;;;;;5106541;28;19938;-59
2021/07/21 14:49:54;;;;;;;;;;;25.90;68.10;;;;;;5112883;28;19931;-59
2021/07/21 14:52:43;;;;;;;;;;;25.60;68.90;;;;;;5091637;28;19925;-59
2021/07/21 14:55:33;;;;;;;;;;;25.90;70.20;;;;;;5109477;28;19928;-59
2021/07/21 14:58:22;;;;;;;;;;;26.40;66.90;;;;;;5111293;28;20191;-59
2021/07/21 15:01:11;;;;;;;;;;;26.10;70.50;;;;;;5097325;28;19924;-62
2021/07/21 15:04:00;;;;;;;;;;;26.20;70.20;;;;;;5108777;28;20268;-59
2021/07/21 15:06:49;;;;;;;;;;;26.30;69.40;;;;;;5109365;28;19935;-59
2021/07/21 15:09:38;;;;;;;;;;;26.30;67.50;;;;;;5107931;28;20396;-59
2021/07/21 15:12:30;;;;;;;;;;;26.10;68.50;;;;;;5111224;28;19927;-59
2021/07/21 15:15:18;;;;;;;;;;;26.20;68.60;;;;;;5102314;28;19927;-59
2021/07/21 15:18:06;;;;;;;;;;;25.90;68.90;;;;;;5111638;28;19928;-59
2021/07/21 15:20:55;;;;;;;;;;;25.60;68.20;;;;;;5107860;28;19935;-58
2021/07/21 15:23:45;;;;;;;;;;;25.50;68.90;;;;;;5108816;28;19924;-58
2021/07/21 15:26:33;;;;;;;;;;;25.50;69.40;;;;;;5110100;28;20318;-59
2021/07/21 15:29:22;;;;;;;;;;;25.70;70.10;;;;;;5110940;28;19959;-58
2021/07/21 15:32:11;;;;;;;;;;;25.90;68.50;;;;;;5102510;28;19923;-59
2021/07/21 15:35:00;;;;;;;;;;;25.90;68.90;;;;;;5103721;28;20023;-59
2021/07/21 15:37:48;;;;;;;;;;;26.00;70.40;;;;;;5110810;28;19924;-59
2021/07/21 15:40:38;;;;;;;;;;;26.20;70.90;;;;;;5111163;28;19935;-59
2021/07/21 15:43:26;;;;;;;;;;;26.30;68.70;;;;;;5107511;28;20276;-60
2021/07/21 15:46:14;;;;;;;;;;;26.30;69.00;;;;;;5105407;28;19927;-60
2021/07/21 15:49:03;;;;;;;;;;;26.40;67.40;;;;;;5111428;28;20015;-60
2021/07/21 15:52:17;;;;;;;;;;;26.30;67.70;;;;;;5110035;28;19950;-60
2021/07/21 15:55:07;;;;;;;;;;;26.50;67.70;;;;;;5110683;28;20326;-60
2021/07/21 15:57:57;;;;;;;;;;;26.50;66.80;;;;;;5102552;28;19932;-60
2021/07/21 16:00:50;;;;;;;;;;;26.20;68.00;;;;;;5090018;28;19928;-61
2021/07/21 16:03:38;;;;;;;;;;;26.00;68.20;;;;;;5104397;28;19989;-60
2021/07/21 16:06:27;;;;;;;;;;;25.90;69.10;;;;;;5110402;28;19931;-60
2021/07/21 16:09:16;;;;;;;;;;;25.70;69.70;;;;;;5103336;28;19928;-60
2021/07/21 16:12:05;;;;;;;;;;;25.90;69.50;;;;;;5108585;28;19927;-59
2021/07/21 16:14:55;;;;;;;;;;;25.90;71.00;;;;;;5110483;28;19924;-60
2021/07/21 16:17:43;;;;;;;;;;;25.80;69.50;;;;;;5109103;28;19931;-60
2021/07/21 16:20:32;;;;;;;;;;;26.00;70.90;;;;;;5101053;28;20239;-60
2021/07/21 16:23:21;;;;;;;;;;;26.20;69.00;;;;;;5107867;28;19932;-60
2021/07/21 16:26:09;;;;;;;;;;;26.20;69.30;;;;;;5110864;28;19993;-60
2021/07/21 16:28:57;;;;;;;;;;;26.00;69.00;;;;;;5106166;28;20342;-59
2021/07/21 16:31:47;;;;;;;;;;;25.70;68.60;;;;;;5105189;28;19935;-60
2021/07/21 16:34:36;;;;;;;;;;;25.20;68.90;;;;;;5112882;28;19962;-60
2021/07/21 16:37:24;;;;;;;;;;;24.90;69.00;;;;;;5105418;28;20279;-60
2021/07/21 16:40:14;;;;;;;;;;;24.90;68.30;;;;;;5107865;28;19924;-60
2021/07/21 16:43:02;;;;;;;;;;;25.00;69.50;;;;;;5107092;28;20405;-60
2021/07/21 16:45:51;;;;;;;;;;;25.00;69.60;;;;;;5104113;28;19924;-60
2021/07/21 16:48:41;;;;;;;;;;;24.90;69.60;;;;;;5107333;28;19935;-59
2021/07/21 16:51:30;;;;;;;;;;;25.00;69.50;;;;;;5082533;28;19987;-60
2021/07/21 16:54:18;;;;;;;;;;;24.90;70.80;;;;;;5109850;28;19923;-60
2021/07/21 16:57:07;;;;;;;;;;;24.90;70.60;;;;;;5107730;28;20369;-63
2021/07/21 16:59:56;;;;;;;;;;;25.00;71.40;;;;;;5110151;28;20012;-60
2021/07/21 17:02:44;;;;;;;;;;;25.20;72.20;;;;;;5107272;28;19924;-60
2021/07/21 17:05:34;;;;;;;;;;;25.40;70.10;;;;;;5107269;28;20056;-60